Terminal Aerodrome Forecast
Issued by NWS

Home | Current Version | Previous Version | Text Only | Print | Product List | Glossary On
Versions: 1 2 3 4 5 6 7 8 9 10 11 12
862
FTUS44 KTSA 251140
TAFXNA
TAF
KXNA 251140Z 2512/2612 VRB06KT P6SM SCT040 BKN250
     FM251800 25008KT P6SM VCTS BKN050CB BKN120
     FM252100 32011KT P6SM VCTS SCT025 BKN040CB BKN120
      TEMPO 2521/2524 6SM -TSRA BKN022CB
     FM260000 36010KT P6SM BKN025 BKN040
     FM260400 01007KT P6SM BKN045 BKN100=

USA.gov is the U.S. government's official web portal to all federal, state and local government web resources and services.